createdAt,value
2019-01-20T00:00:34.755Z,24.83
2019-01-20T00:05:39.160Z,23.70
2019-01-20T00:10:43.439Z,24.77
2019-01-20T00:15:47.816Z,30.20
2019-01-20T00:20:53.183Z,27.77
2019-01-20T00:25:57.447Z,26.27
2019-01-20T00:31:01.625Z,26.97
2019-01-20T00:36:05.986Z,27.27
2019-01-20T00:41:10.182Z,32.83
2019-01-20T00:46:14.731Z,25.83
2019-01-20T00:51:19.325Z,27.70
2019-01-20T00:56:23.491Z,27.67
2019-01-20T01:01:27.691Z,28.27
2019-01-20T01:06:31.990Z,27.47
2019-01-20T01:11:36.184Z,28.40
2019-01-20T01:16:40.384Z,24.77
2019-01-20T01:21:44.596Z,30.63
2019-01-20T01:26:48.804Z,26.77
2019-01-20T01:31:52.978Z,29.10
2019-01-20T01:36:57.190Z,32.43
2019-01-20T01:42:01.386Z,25.77
2019-01-20T01:47:05.561Z,30.00
2019-01-20T01:52:09.767Z,29.87
2019-01-20T01:57:13.962Z,24.10
2019-01-20T02:02:18.227Z,26.23
2019-01-20T02:07:22.438Z,28.27
2019-01-20T02:12:26.690Z,28.97
2019-01-20T02:17:30.956Z,29.80
2019-01-20T02:22:35.380Z,29.50
2019-01-20T02:27:39.651Z,25.97
2019-01-20T02:32:43.923Z,31.23
2019-01-20T02:37:48.210Z,27.27
2019-01-20T02:42:52.400Z,28.03
2019-01-20T02:47:56.607Z,28.30
2019-01-20T02:53:00.813Z,28.00
2019-01-20T02:58:05.003Z,26.63
2019-01-20T03:03:09.193Z,28.60
2019-01-20T03:08:13.383Z,26.53
2019-01-20T03:13:17.646Z,28.03
2019-01-20T03:18:21.822Z,28.70
2019-01-20T03:23:26.006Z,31.03
2019-01-20T03:28:30.198Z,28.00
2019-01-20T03:33:34.382Z,26.73
2019-01-20T03:38:38.563Z,30.30
2019-01-20T03:43:42.765Z,29.87
2019-01-20T03:48:47.015Z,27.73
2019-01-20T03:53:51.225Z,27.83
2019-01-20T03:58:55.684Z,31.67
2019-01-20T04:03:59.867Z,30.33
2019-01-20T04:09:07.234Z,28.40
2019-01-20T04:14:11.443Z,34.13
2019-01-20T04:19:15.667Z,26.63
2019-01-20T04:24:19.855Z,26.77
2019-01-20T04:29:24.042Z,29.67
2019-01-20T04:34:28.217Z,25.90
2019-01-20T04:39:32.387Z,25.87
2019-01-20T04:44:36.643Z,28.23
2019-01-20T04:49:40.832Z,28.67
2019-01-20T04:54:45.204Z,27.30
2019-01-20T04:59:49.588Z,29.10
2019-01-20T05:04:53.762Z,28.20
2019-01-20T05:09:57.980Z,30.50
2019-01-20T05:15:02.172Z,32.50
2019-01-20T05:20:08.227Z,30.33
2019-01-20T05:25:12.446Z,32.33
2019-01-20T05:30:20.237Z,28.97
2019-01-20T05:35:24.433Z,30.97
2019-01-20T05:40:28.657Z,30.03
2019-01-20T05:45:32.987Z,36.47
2019-01-20T05:50:37.279Z,28.87
2019-01-20T05:55:41.563Z,30.07
2019-01-20T06:00:45.831Z,29.53
2019-01-20T06:05:50.119Z,29.40
2019-01-20T06:10:54.319Z,29.37
2019-01-20T06:15:58.507Z,32.47
2019-01-20T06:21:02.687Z,26.63
2019-01-20T06:26:06.931Z,32.40
2019-01-20T06:31:11.123Z,28.97
2019-01-20T06:36:15.332Z,29.80
2019-01-20T06:41:19.503Z,31.20
2019-01-20T06:46:23.786Z,29.17
2019-01-20T06:51:28.061Z,27.90
2019-01-20T06:56:32.230Z,28.67
2019-01-20T07:01:36.523Z,26.87
2019-01-20T07:06:40.711Z,28.03
2019-01-20T07:11:44.947Z,27.93
2019-01-20T07:16:49.144Z,28.30
2019-01-20T07:21:53.338Z,26.13
2019-01-20T07:26:57.507Z,30.23
2019-01-20T07:32:01.728Z,30.30
2019-01-20T07:37:06.041Z,31.47
2019-01-20T07:42:10.221Z,30.27
2019-01-20T07:47:14.421Z,30.97
2019-01-20T07:52:18.671Z,26.80
2019-01-20T07:57:22.902Z,29.43
2019-01-20T08:02:27.399Z,34.90
2019-01-20T08:07:31.608Z,33.33
2019-01-20T08:12:35.803Z,31.70
2019-01-20T08:17:39.996Z,26.83
2019-01-20T08:22:44.192Z,32.60
2019-01-20T08:27:48.495Z,36.10
2019-01-20T08:32:52.723Z,42.50
2019-01-20T08:37:57.005Z,44.93
2019-01-20T08:43:01.576Z,47.40
2019-01-20T08:48:11.407Z,51.23
2019-01-20T08:53:15.687Z,45.10
2019-01-20T08:58:20.575Z,43.33
2019-01-20T09:03:24.776Z,46.00
2019-01-20T09:08:30.534Z,48.10
2019-01-20T09:13:39.588Z,50.37
2019-01-20T09:18:41.254Z,50.37
2019-01-20T09:23:45.467Z,53.83
2019-01-20T09:28:49.643Z,50.30
2019-01-20T09:33:53.847Z,47.90
2019-01-20T09:38:58.051Z,54.03
2019-01-20T09:44:02.250Z,49.23
2019-01-20T09:49:06.516Z,43.13
2019-01-20T09:54:10.749Z,46.07
2019-01-20T09:59:14.945Z,47.57
2019-01-20T10:04:19.203Z,46.97
2019-01-20T10:09:23.588Z,45.17
2019-01-20T10:14:27.812Z,47.30
2019-01-20T10:19:32.016Z,51.30
2019-01-20T10:24:36.216Z,44.73
2019-01-20T10:29:40.436Z,45.43
2019-01-20T10:34:45.073Z,46.07
2019-01-20T10:39:49.279Z,47.70
2019-01-20T10:44:53.491Z,46.07
2019-01-20T10:49:57.865Z,49.23
2019-01-20T10:55:02.407Z,47.87
2019-01-20T11:00:12.524Z,50.33
2019-01-20T11:05:16.983Z,44.47
2019-01-20T11:10:21.507Z,47.33
2019-01-20T11:15:25.908Z,52.67
2019-01-20T11:20:30.224Z,46.50
2019-01-20T11:25:43.004Z,42.43
2019-01-20T11:30:47.312Z,44.30
2019-01-20T11:35:51.590Z,39.30
2019-01-20T11:40:55.859Z,42.83
2019-01-20T11:46:00.087Z,40.40
2019-01-20T11:51:04.357Z,39.40
2019-01-20T11:56:08.575Z,42.37
2019-01-20T12:01:12.787Z,42.63
2019-01-20T12:06:17.094Z,42.67
2019-01-20T12:11:21.302Z,47.33
2019-01-20T12:16:25.527Z,42.57
2019-01-20T12:21:29.709Z,45.77
2019-01-20T12:26:33.936Z,39.60
2019-01-20T12:31:38.162Z,45.10
2019-01-20T12:36:42.357Z,42.60
2019-01-20T12:41:46.636Z,42.83
2019-01-20T12:46:50.909Z,41.73
2019-01-20T12:51:55.211Z,39.97
2019-01-20T12:56:59.510Z,37.43
2019-01-20T13:02:03.793Z,39.47
2019-01-20T13:07:08.059Z,39.63
2019-01-20T13:12:12.357Z,39.97
2019-01-20T13:17:16.554Z,40.43
2019-01-20T13:22:20.800Z,39.47
2019-01-20T13:27:25.024Z,32.97
2019-01-20T13:32:29.239Z,38.30
2019-01-20T13:37:33.453Z,38.17
2019-01-20T13:42:37.672Z,37.47
2019-01-20T13:47:48.512Z,44.00
2019-01-20T13:52:47.983Z,45.33
2019-01-20T13:57:52.276Z,44.60
2019-01-20T14:02:56.471Z,45.53
2019-01-20T14:08:00.889Z,51.50
2019-01-20T14:13:05.416Z,44.80
2019-01-20T14:18:09.768Z,43.90
2019-01-20T14:23:14.049Z,46.47
2019-01-20T14:28:18.243Z,43.77
2019-01-20T14:33:23.381Z,43.60
2019-01-20T14:38:27.712Z,45.23
2019-01-20T14:43:32.023Z,45.67
2019-01-20T14:48:36.325Z,45.13
2019-01-20T14:53:40.724Z,47.70
2019-01-20T14:58:44.948Z,47.13
2019-01-20T15:03:49.170Z,44.50
2019-01-20T15:08:53.411Z,47.97
2019-01-20T15:13:57.712Z,51.13
2019-01-20T15:19:02.048Z,46.53
2019-01-20T15:24:06.333Z,50.30
2019-01-20T15:29:10.527Z,45.63
2019-01-20T15:34:14.790Z,46.57
2019-01-20T15:39:19.160Z,49.90
2019-01-20T15:44:23.381Z,47.50
2019-01-20T15:49:30.927Z,51.33
2019-01-20T15:54:35.424Z,44.60
2019-01-20T15:59:39.711Z,48.80
2019-01-20T16:04:44.084Z,52.87
2019-01-20T16:09:48.304Z,53.43
2019-01-20T16:14:52.594Z,52.83
2019-01-20T16:19:56.906Z,58.10
2019-01-20T16:25:01.205Z,59.30
2019-01-20T16:30:11.706Z,57.20
2019-01-20T16:35:16.151Z,60.27
2019-01-20T16:40:21.954Z,54.97
2019-01-20T16:45:33.023Z,57.07
2019-01-20T16:50:35.395Z,58.40
2019-01-20T16:55:39.611Z,67.33
2019-01-20T17:00:46.917Z,68.43
2019-01-20T17:05:51.145Z,63.07
2019-01-20T17:10:55.464Z,68.30
2019-01-20T17:15:59.925Z,58.53
2019-01-20T17:21:04.277Z,61.13
2019-01-20T17:26:08.468Z,61.43
2019-01-20T17:31:12.845Z,59.70
2019-01-20T17:48:25.516Z,59.73
2019-01-20T17:53:29.880Z,60.40
2019-01-20T17:58:34.115Z,62.57
2019-01-20T18:03:38.335Z,61.27
2019-01-20T18:08:42.684Z,53.73
2019-01-20T18:13:47.039Z,63.50
2019-01-20T18:18:51.342Z,57.50
2019-01-20T18:23:56.694Z,60.37
2019-01-20T18:29:01.172Z,65.03
2019-01-20T18:34:05.485Z,62.47
2019-01-20T18:39:10.400Z,65.87
2019-01-20T18:44:14.725Z,64.37
2019-01-20T18:49:19.062Z,63.27
2019-01-20T18:54:23.397Z,65.40
2019-01-20T18:59:27.822Z,63.03
2019-01-20T19:04:32.097Z,62.03
2019-01-20T19:09:36.472Z,67.93
2019-01-20T19:14:40.696Z,65.67
2019-01-20T19:19:44.935Z,62.10
2019-01-20T19:24:49.290Z,67.07
2019-01-20T19:29:53.727Z,69.57
2019-01-20T19:34:58.016Z,68.27
2019-01-20T19:40:02.480Z,66.87
2019-01-20T19:45:08.760Z,69.50
2019-01-20T19:50:13.872Z,67.93
2019-01-20T19:55:27.361Z,67.63
2019-01-20T20:00:32.533Z,64.17
2019-01-20T20:05:36.855Z,64.87
2019-01-20T20:10:41.096Z,63.23
2019-01-20T20:15:45.499Z,58.60
2019-01-20T20:20:50.291Z,60.03
2019-01-20T20:25:54.819Z,65.23
2019-01-20T20:30:59.069Z,72.93
2019-01-20T20:36:03.353Z,68.40
2019-01-20T20:41:07.765Z,68.73
2019-01-20T20:46:11.983Z,72.50
2019-01-20T20:51:16.233Z,73.43
2019-01-20T20:56:20.525Z,82.93
2019-01-20T21:01:24.849Z,74.30
2019-01-20T21:06:29.232Z,77.97
2019-01-20T21:11:33.940Z,73.10
2019-01-20T21:16:38.226Z,75.30
2019-01-20T21:21:42.456Z,73.57
2019-01-20T21:26:46.720Z,74.53
2019-01-20T21:31:50.943Z,74.57
2019-01-20T21:36:55.148Z,72.17
2019-01-20T21:41:59.378Z,75.63
2019-01-20T21:47:03.693Z,73.73
2019-01-20T21:52:08.008Z,65.60
2019-01-20T21:57:12.263Z,67.17
2019-01-20T22:02:16.457Z,84.00
2019-01-20T22:07:20.737Z,136.20
2019-01-20T22:12:24.972Z,108.47
2019-01-20T22:17:29.218Z,81.43
2019-01-20T22:22:33.510Z,105.90
2019-01-20T22:27:37.759Z,166.80
2019-01-20T22:32:41.984Z,172.43
2019-01-20T22:37:46.287Z,115.57
2019-01-20T22:42:50.498Z,97.47
2019-01-20T22:47:54.703Z,159.57
2019-01-20T22:52:58.967Z,132.00
2019-01-20T22:58:03.347Z,77.13
2019-01-20T23:03:07.917Z,100.37
2019-01-20T23:08:12.676Z,109.20
2019-01-20T23:13:17.039Z,79.03
2019-01-20T23:18:21.707Z,83.33
2019-01-20T23:23:25.884Z,103.37
2019-01-20T23:28:30.084Z,88.47
2019-01-20T23:33:34.295Z,91.37
2019-01-20T23:38:38.570Z,95.77
2019-01-20T23:43:42.837Z,94.90
2019-01-20T23:48:47.037Z,73.27
2019-01-20T23:53:51.356Z,96.87
2019-01-20T23:58:55.642Z,106.33
